sensor_id;sensor_type;location;lat;lon;timestamp;temperature;humidity
4215;DHT22;2121;48.062;7.850;2024-03-25T00:01:20;5.20;99.90
4215;DHT22;2121;48.062;7.850;2024-03-25T00:03:46;5.30;99.90
4215;DHT22;2121;48.062;7.850;2024-03-25T00:06:11;5.20;99.90
4215;DHT22;2121;48.062;7.850;2024-03-25T00:08:37;5.20;99.90
4215;DHT22;2121;48.062;7.850;2024-03-25T00:11:03;5.20;99.90
4215;DHT22;2121;48.062;7.850;2024-03-25T00:13:28;5.20;99.90
4215;DHT22;2121;48.062;7.850;2024-03-25T00:15:57;5.20;99.90
4215;DHT22;2121;48.062;7.850;2024-03-25T00:18:23;5.20;99.90
4215;DHT22;2121;48.062;7.850;2024-03-25T00:20:48;5.20;99.90
4215;DHT22;2121;48.062;7.850;2024-03-25T00:23:14;5.10;99.90
4215;DHT22;2121;48.062;7.850;2024-03-25T00:25:40;5.10;99.90
4215;DHT22;2121;48.062;7.850;2024-03-25T00:28:06;5.00;99.90
4215;DHT22;2121;48.062;7.850;2024-03-25T00:30:32;5.00;99.90
4215;DHT22;2121;48.062;7.850;2024-03-25T00:32:57;5.00;99.90
4215;DHT22;2121;48.062;7.850;2024-03-25T00:35:23;5.00;99.90
4215;DHT22;2121;48.062;7.850;2024-03-25T00:37:49;5.00;99.90
4215;DHT22;2121;48.062;7.850;2024-03-25T00:40:14;5.00;99.90
4215;DHT22;2121;48.062;7.850;2024-03-25T00:42:40;4.90;99.90
4215;DHT22;2121;48.062;7.850;2024-03-25T00:45:06;4.90;99.90
4215;DHT22;2121;48.062;7.850;2024-03-25T00:47:33;4.90;99.90
4215;DHT22;2121;48.062;7.850;2024-03-25T00:49:58;4.80;99.90
4215;DHT22;2121;48.062;7.850;2024-03-25T00:52:24;4.70;99.90
4215;DHT22;2121;48.062;7.850;2024-03-25T00:54:50;4.70;99.90
4215;DHT22;2121;48.062;7.850;2024-03-25T00:57:15;4.70;99.90
4215;DHT22;2121;48.062;7.850;2024-03-25T00:59:41;4.60;99.90
4215;DHT22;2121;48.062;7.850;2024-03-25T01:02:07;4.60;99.90
4215;DHT22;2121;48.062;7.850;2024-03-25T01:04:33;4.50;99.90
4215;DHT22;2121;48.062;7.850;2024-03-25T01:06:59;4.50;99.90
4215;DHT22;2121;48.062;7.850;2024-03-25T01:09:25;4.60;99.90
4215;DHT22;2121;48.062;7.850;2024-03-25T01:11:51;4.60;99.90
4215;DHT22;2121;48.062;7.850;2024-03-25T01:14:17;4.50;99.90
4215;DHT22;2121;48.062;7.850;2024-03-25T01:16:42;4.60;99.90
4215;DHT22;2121;48.062;7.850;2024-03-25T01:19:08;4.70;99.90
4215;DHT22;2121;48.062;7.850;2024-03-25T01:21:34;4.70;99.90
4215;DHT22;2121;48.062;7.850;2024-03-25T01:24:00;4.70;99.90
4215;DHT22;2121;48.062;7.850;2024-03-25T01:26:26;4.60;99.90
4215;DHT22;2121;48.062;7.850;2024-03-25T01:28:52;4.70;99.90
4215;DHT22;2121;48.062;7.850;2024-03-25T01:31:19;4.70;99.90
4215;DHT22;2121;48.062;7.850;2024-03-25T01:33:45;4.70;99.90
4215;DHT22;2121;48.062;7.850;2024-03-25T01:36:11;4.70;99.90
4215;DHT22;2121;48.062;7.850;2024-03-25T01:38:42;4.60;99.90
4215;DHT22;2121;48.062;7.850;2024-03-25T01:41:12;4.60;99.90
4215;DHT22;2121;48.062;7.850;2024-03-25T01:43:38;4.60;99.90
4215;DHT22;2121;48.062;7.850;2024-03-25T01:46:04;4.50;99.90
4215;DHT22;2121;48.062;7.850;2024-03-25T01:48:31;4.50;99.90
4215;DHT22;2121;48.062;7.850;2024-03-25T01:50:58;4.50;99.90
4215;DHT22;2121;48.062;7.850;2024-03-25T01:53:24;4.50;99.90
4215;DHT22;2121;48.062;7.850;2024-03-25T01:55:52;4.50;99.90
4215;DHT22;2121;48.062;7.850;2024-03-25T01:58:20;4.50;99.90
4215;DHT22;2121;48.062;7.850;2024-03-25T02:00:47;4.50;99.90
4215;DHT22;2121;48.062;7.850;2024-03-25T02:03:13;4.50;99.90
4215;DHT22;2121;48.062;7.850;2024-03-25T02:05:39;4.70;99.90
4215;DHT22;2121;48.062;7.850;2024-03-25T02:08:06;4.60;99.90
4215;DHT22;2121;48.062;7.850;2024-03-25T02:10:32;4.50;99.90
4215;DHT22;2121;48.062;7.850;2024-03-25T02:12:58;4.40;99.90
4215;DHT22;2121;48.062;7.850;2024-03-25T02:15:24;4.30;99.90
4215;DHT22;2121;48.062;7.850;2024-03-25T02:17:52;4.20;99.90
4215;DHT22;2121;48.062;7.850;2024-03-25T02:20:18;4.10;99.90
4215;DHT22;2121;48.062;7.850;2024-03-25T02:22:43;4.00;99.90
4215;DHT22;2121;48.062;7.850;2024-03-25T02:25:10;3.90;99.90
4215;DHT22;2121;48.062;7.850;2024-03-25T02:27:39;3.90;99.90
4215;DHT22;2121;48.062;7.850;2024-03-25T02:30:05;3.70;99.90
4215;DHT22;2121;48.062;7.850;2024-03-25T02:32:33;3.60;99.90
4215;DHT22;2121;48.062;7.850;2024-03-25T02:34:59;3.50;99.90
4215;DHT22;2121;48.062;7.850;2024-03-25T02:37:26;3.50;99.90
4215;DHT22;2121;48.062;7.850;2024-03-25T02:39:57;3.50;99.90
4215;DHT22;2121;48.062;7.850;2024-03-25T02:42:25;3.50;99.90
4215;DHT22;2121;48.062;7.850;2024-03-25T02:44:55;3.40;99.90
4215;DHT22;2121;48.062;7.850;2024-03-25T02:47:22;3.40;99.90
4215;DHT22;2121;48.062;7.850;2024-03-25T02:49:47;3.40;99.90
4215;DHT22;2121;48.062;7.850;2024-03-25T02:52:13;3.40;99.90
4215;DHT22;2121;48.062;7.850;2024-03-25T02:54:39;3.40;99.90
4215;DHT22;2121;48.062;7.850;2024-03-25T02:57:05;3.30;99.90
4215;DHT22;2121;48.062;7.850;2024-03-25T02:59:30;3.30;99.90
4215;DHT22;2121;48.062;7.850;2024-03-25T03:01:56;3.20;99.90
4215;DHT22;2121;48.062;7.850;2024-03-25T03:04:22;3.30;99.90
4215;DHT22;2121;48.062;7.850;2024-03-25T03:06:47;3.50;99.90
4215;DHT22;2121;48.062;7.850;2024-03-25T03:09:13;3.50;99.90
4215;DHT22;2121;48.062;7.850;2024-03-25T03:11:39;3.40;99.90
4215;DHT22;2121;48.062;7.850;2024-03-25T03:14:04;3.40;99.90
4215;DHT22;2121;48.062;7.850;2024-03-25T03:16:30;3.40;99.90
4215;DHT22;2121;48.062;7.850;2024-03-25T03:18:56;3.60;99.90
4215;DHT22;2121;48.062;7.850;2024-03-25T03:21:22;3.50;99.90
4215;DHT22;2121;48.062;7.850;2024-03-25T03:23:47;3.50;99.90
4215;DHT22;2121;48.062;7.850;2024-03-25T03:26:13;3.60;99.90
4215;DHT22;2121;48.062;7.850;2024-03-25T03:28:39;3.50;99.90
4215;DHT22;2121;48.062;7.850;2024-03-25T03:31:06;3.50;99.90
4215;DHT22;2121;48.062;7.850;2024-03-25T03:33:32;3.50;99.90
4215;DHT22;2121;48.062;7.850;2024-03-25T03:35:58;3.60;99.90
4215;DHT22;2121;48.062;7.850;2024-03-25T03:38:23;3.60;99.90
4215;DHT22;2121;48.062;7.850;2024-03-25T03:40:59;3.60;99.90
4215;DHT22;2121;48.062;7.850;2024-03-25T03:43:27;3.70;99.90
4215;DHT22;2121;48.062;7.850;2024-03-25T03:45:52;3.80;99.90
4215;DHT22;2121;48.062;7.850;2024-03-25T03:48:18;3.80;99.90
4215;DHT22;2121;48.062;7.850;2024-03-25T03:50:45;3.80;99.90
4215;DHT22;2121;48.062;7.850;2024-03-25T03:53:11;3.70;99.90
4215;DHT22;2121;48.062;7.850;2024-03-25T03:55:37;3.80;99.90
4215;DHT22;2121;48.062;7.850;2024-03-25T03:58:03;3.90;99.90
4215;DHT22;2121;48.062;7.850;2024-03-25T04:00:29;3.90;99.90
4215;DHT22;2121;48.062;7.850;2024-03-25T04:02:54;3.90;99.90
4215;DHT22;2121;48.062;7.850;2024-03-25T04:05:20;3.90;99.90
4215;DHT22;2121;48.062;7.850;2024-03-25T04:07:46;3.90;99.90
4215;DHT22;2121;48.062;7.850;2024-03-25T04:10:12;4.00;99.90
4215;DHT22;2121;48.062;7.850;2024-03-25T04:12:39;3.90;99.90
4215;DHT22;2121;48.062;7.850;2024-03-25T04:15:05;3.90;99.90
4215;DHT22;2121;48.062;7.850;2024-03-25T04:17:31;3.90;99.90
4215;DHT22;2121;48.062;7.850;2024-03-25T04:19:59;3.90;99.90
4215;DHT22;2121;48.062;7.850;2024-03-25T04:22:31;3.90;99.90
4215;DHT22;2121;48.062;7.850;2024-03-25T04:24:57;3.90;99.90
4215;DHT22;2121;48.062;7.850;2024-03-25T04:27:22;3.90;99.90
4215;DHT22;2121;48.062;7.850;2024-03-25T04:29:49;3.90;99.90
4215;DHT22;2121;48.062;7.850;2024-03-25T04:32:15;3.90;99.90
4215;DHT22;2121;48.062;7.850;2024-03-25T04:34:41;3.90;99.90
4215;DHT22;2121;48.062;7.850;2024-03-25T04:37:07;3.90;99.90
4215;DHT22;2121;48.062;7.850;2024-03-25T04:39:35;3.90;99.90
4215;DHT22;2121;48.062;7.850;2024-03-25T04:42:00;3.80;99.90
4215;DHT22;2121;48.062;7.850;2024-03-25T04:44:27;3.80;99.90
4215;DHT22;2121;48.062;7.850;2024-03-25T04:46:53;3.80;99.90
4215;DHT22;2121;48.062;7.850;2024-03-25T04:49:19;3.80;99.90
4215;DHT22;2121;48.062;7.850;2024-03-25T04:51:44;3.80;99.90
4215;DHT22;2121;48.062;7.850;2024-03-25T04:54:10;3.80;99.90
4215;DHT22;2121;48.062;7.850;2024-03-25T04:56:35;3.70;99.90
4215;DHT22;2121;48.062;7.850;2024-03-25T04:59:01;3.50;99.90
4215;DHT22;2121;48.062;7.850;2024-03-25T05:01:30;3.30;99.90
4215;DHT22;2121;48.062;7.850;2024-03-25T05:03:55;3.10;99.90
4215;DHT22;2121;48.062;7.850;2024-03-25T05:06:21;3.00;99.90
4215;DHT22;2121;48.062;7.850;2024-03-25T05:08:47;3.10;99.90
4215;DHT22;2121;48.062;7.850;2024-03-25T05:11:12;2.90;99.90
4215;DHT22;2121;48.062;7.850;2024-03-25T05:13:38;2.90;99.90
4215;DHT22;2121;48.062;7.850;2024-03-25T05:16:04;2.90;99.90
4215;DHT22;2121;48.062;7.850;2024-03-25T05:18:30;2.90;99.90
4215;DHT22;2121;48.062;7.850;2024-03-25T05:20:56;2.90;99.90
4215;DHT22;2121;48.062;7.850;2024-03-25T05:23:21;2.80;99.90
4215;DHT22;2121;48.062;7.850;2024-03-25T05:25:48;2.70;99.90
4215;DHT22;2121;48.062;7.850;2024-03-25T05:28:13;2.50;99.90
4215;DHT22;2121;48.062;7.850;2024-03-25T05:30:39;2.40;99.90
4215;DHT22;2121;48.062;7.850;2024-03-25T05:33:05;2.40;99.90
4215;DHT22;2121;48.062;7.850;2024-03-25T05:35:30;2.30;99.90
4215;DHT22;2121;48.062;7.850;2024-03-25T05:37:59;2.20;99.90
4215;DHT22;2121;48.062;7.850;2024-03-25T05:40:24;2.20;99.90
4215;DHT22;2121;48.062;7.850;2024-03-25T05:42:50;2.10;99.90
4215;DHT22;2121;48.062;7.850;2024-03-25T05:45:16;2.20;99.90
4215;DHT22;2121;48.062;7.850;2024-03-25T05:47:42;2.30;99.90
4215;DHT22;2121;48.062;7.850;2024-03-25T05:50:08;2.20;99.90
4215;DHT22;2121;48.062;7.850;2024-03-25T05:52:34;2.20;99.90
4215;DHT22;2121;48.062;7.850;2024-03-25T05:54:59;2.10;99.90
4215;DHT22;2121;48.062;7.850;2024-03-25T05:57:25;2.10;99.90
4215;DHT22;2121;48.062;7.850;2024-03-25T05:59:50;2.10;99.90
4215;DHT22;2121;48.062;7.850;2024-03-25T06:02:16;2.10;99.90
4215;DHT22;2121;48.062;7.850;2024-03-25T06:04:42;2.10;99.90
4215;DHT22;2121;48.062;7.850;2024-03-25T06:07:08;2.30;99.90
4215;DHT22;2121;48.062;7.850;2024-03-25T06:09:34;2.30;99.90
4215;DHT22;2121;48.062;7.850;2024-03-25T06:11:59;2.50;99.90
4215;DHT22;2121;48.062;7.850;2024-03-25T06:14:25;2.70;99.90
4215;DHT22;2121;48.062;7.850;2024-03-25T06:16:50;2.90;99.90
4215;DHT22;2121;48.062;7.850;2024-03-25T06:19:16;3.10;99.90
4215;DHT22;2121;48.062;7.850;2024-03-25T06:21:42;3.20;99.90
4215;DHT22;2121;48.062;7.850;2024-03-25T06:24:08;3.30;99.90
4215;DHT22;2121;48.062;7.850;2024-03-25T06:26:34;3.50;99.90
4215;DHT22;2121;48.062;7.850;2024-03-25T06:29:00;3.60;99.90
4215;DHT22;2121;48.062;7.850;2024-03-25T06:31:25;3.70;99.90
4215;DHT22;2121;48.062;7.850;2024-03-25T06:34:10;3.90;99.90
4215;DHT22;2121;48.062;7.850;2024-03-25T06:36:47;4.00;99.90
4215;DHT22;2121;48.062;7.850;2024-03-25T06:39:14;4.10;99.90
4215;DHT22;2121;48.062;7.850;2024-03-25T06:41:40;4.30;99.90
4215;DHT22;2121;48.062;7.850;2024-03-25T06:44:06;4.20;99.90
4215;DHT22;2121;48.062;7.850;2024-03-25T06:46:33;4.50;99.90
4215;DHT22;2121;48.062;7.850;2024-03-25T06:48:59;4.60;99.90
4215;DHT22;2121;48.062;7.850;2024-03-25T06:51:25;4.70;99.90
4215;DHT22;2121;48.062;7.850;2024-03-25T06:53:50;4.80;99.90
4215;DHT22;2121;48.062;7.850;2024-03-25T06:56:16;5.00;99.90
4215;DHT22;2121;48.062;7.850;2024-03-25T06:58:42;5.10;99.90
4215;DHT22;2121;48.062;7.850;2024-03-25T07:01:09;5.20;99.90
4215;DHT22;2121;48.062;7.850;2024-03-25T07:03:37;5.40;99.90
4215;DHT22;2121;48.062;7.850;2024-03-25T07:06:04;5.50;99.90
4215;DHT22;2121;48.062;7.850;2024-03-25T07:08:30;5.60;99.90
4215;DHT22;2121;48.062;7.850;2024-03-25T07:10:57;5.70;99.90
4215;DHT22;2121;48.062;7.850;2024-03-25T07:13:23;5.90;99.90
4215;DHT22;2121;48.062;7.850;2024-03-25T07:15:49;6.10;99.90
4215;DHT22;2121;48.062;7.850;2024-03-25T07:18:16;6.20;99.90
4215;DHT22;2121;48.062;7.850;2024-03-25T07:20:43;6.30;99.90
4215;DHT22;2121;48.062;7.850;2024-03-25T07:23:09;6.40;99.90
4215;DHT22;2121;48.062;7.850;2024-03-25T07:25:35;6.50;99.90
4215;DHT22;2121;48.062;7.850;2024-03-25T07:28:02;6.60;99.90
4215;DHT22;2121;48.062;7.850;2024-03-25T07:30:28;6.70;99.90
4215;DHT22;2121;48.062;7.850;2024-03-25T07:32:55;6.80;99.90
4215;DHT22;2121;48.062;7.850;2024-03-25T07:35:21;6.90;99.90
4215;DHT22;2121;48.062;7.850;2024-03-25T07:37:47;7.00;99.90
4215;DHT22;2121;48.062;7.850;2024-03-25T07:40:16;7.10;99.90
4215;DHT22;2121;48.062;7.850;2024-03-25T07:42:43;7.20;99.90
4215;DHT22;2121;48.062;7.850;2024-03-25T07:45:09;7.30;99.90
4215;DHT22;2121;48.062;7.850;2024-03-25T07:47:35;7.50;99.90
4215;DHT22;2121;48.062;7.850;2024-03-25T07:50:01;7.60;99.90
4215;DHT22;2121;48.062;7.850;2024-03-25T07:52:27;7.70;99.90
4215;DHT22;2121;48.062;7.850;2024-03-25T07:54:56;7.80;99.90
4215;DHT22;2121;48.062;7.850;2024-03-25T07:57:22;7.90;99.90
4215;DHT22;2121;48.062;7.850;2024-03-25T07:59:48;8.10;99.90
4215;DHT22;2121;48.062;7.850;2024-03-25T08:02:14;8.20;99.90
4215;DHT22;2121;48.062;7.850;2024-03-25T08:04:39;8.20;99.90
4215;DHT22;2121;48.062;7.850;2024-03-25T08:07:05;8.30;99.90
4215;DHT22;2121;48.062;7.850;2024-03-25T08:09:31;8.30;99.90
4215;DHT22;2121;48.062;7.850;2024-03-25T08:11:57;8.40;99.90
4215;DHT22;2121;48.062;7.850;2024-03-25T08:14:23;8.50;99.90
4215;DHT22;2121;48.062;7.850;2024-03-25T08:16:48;8.70;99.90
4215;DHT22;2121;48.062;7.850;2024-03-25T08:19:14;8.70;99.90
4215;DHT22;2121;48.062;7.850;2024-03-25T08:21:40;8.70;99.90
4215;DHT22;2121;48.062;7.850;2024-03-25T08:24:06;8.60;99.90
4215;DHT22;2121;48.062;7.850;2024-03-25T08:26:32;8.50;99.90
4215;DHT22;2121;48.062;7.850;2024-03-25T08:28:58;8.70;99.90
4215;DHT22;2121;48.062;7.850;2024-03-25T08:31:24;8.90;99.90
4215;DHT22;2121;48.062;7.850;2024-03-25T08:33:50;8.90;99.90
4215;DHT22;2121;48.062;7.850;2024-03-25T08:36:16;8.70;99.90
4215;DHT22;2121;48.062;7.850;2024-03-25T08:38:43;8.70;99.90
4215;DHT22;2121;48.062;7.850;2024-03-25T08:41:09;8.70;99.90
4215;DHT22;2121;48.062;7.850;2024-03-25T08:43:35;8.80;99.90
4215;DHT22;2121;48.062;7.850;2024-03-25T08:46:01;8.80;99.90
4215;DHT22;2121;48.062;7.850;2024-03-25T08:48:26;9.10;99.90
4215;DHT22;2121;48.062;7.850;2024-03-25T08:50:52;9.40;99.90
4215;DHT22;2121;48.062;7.850;2024-03-25T08:53:18;9.50;99.90
4215;DHT22;2121;48.062;7.850;2024-03-25T08:55:45;9.60;99.90
4215;DHT22;2121;48.062;7.850;2024-03-25T08:58:15;9.50;99.90
4215;DHT22;2121;48.062;7.850;2024-03-25T09:00:42;9.80;99.90
4215;DHT22;2121;48.062;7.850;2024-03-25T09:03:08;10.10;99.90
4215;DHT22;2121;48.062;7.850;2024-03-25T09:05:34;10.40;99.90
4215;DHT22;2121;48.062;7.850;2024-03-25T09:08:00;10.20;99.90
4215;DHT22;2121;48.062;7.850;2024-03-25T09:10:26;10.50;99.10
4215;DHT22;2121;48.062;7.850;2024-03-25T09:13:11;10.80;97.20
4215;DHT22;2121;48.062;7.850;2024-03-25T09:15:36;11.10;96.70
4215;DHT22;2121;48.062;7.850;2024-03-25T09:18:02;10.80;95.50
4215;DHT22;2121;48.062;7.850;2024-03-25T09:20:28;11.10;95.80
4215;DHT22;2121;48.062;7.850;2024-03-25T09:22:54;11.40;94.30
4215;DHT22;2121;48.062;7.850;2024-03-25T09:25:19;11.50;92.60
4215;DHT22;2121;48.062;7.850;2024-03-25T09:27:46;11.40;91.50
4215;DHT22;2121;48.062;7.850;2024-03-25T09:30:13;11.60;91.00
4215;DHT22;2121;48.062;7.850;2024-03-25T09:32:39;11.60;89.00
4215;DHT22;2121;48.062;7.850;2024-03-25T09:35:11;11.30;91.90
4215;DHT22;2121;48.062;7.850;2024-03-25T09:37:38;11.00;92.30
4215;DHT22;2121;48.062;7.850;2024-03-25T09:40:04;11.00;92.40
4215;DHT22;2121;48.062;7.850;2024-03-25T09:42:55;11.20;92.50
4215;DHT22;2121;48.062;7.850;2024-03-25T09:45:24;11.70;92.60
4215;DHT22;2121;48.062;7.850;2024-03-25T09:47:51;12.10;91.00
4215;DHT22;2121;48.062;7.850;2024-03-25T09:50:17;12.20;90.80
4215;DHT22;2121;48.062;7.850;2024-03-25T09:52:47;12.30;90.70
4215;DHT22;2121;48.062;7.850;2024-03-25T09:55:13;11.70;88.50
4215;DHT22;2121;48.062;7.850;2024-03-25T09:57:39;11.50;87.10
4215;DHT22;2121;48.062;7.850;2024-03-25T10:00:07;11.30;87.40
4215;DHT22;2121;48.062;7.850;2024-03-25T10:02:37;11.10;90.60
4215;DHT22;2121;48.062;7.850;2024-03-25T10:05:05;11.30;90.60
4215;DHT22;2121;48.062;7.850;2024-03-25T10:07:33;11.40;86.50
4215;DHT22;2121;48.062;7.850;2024-03-25T10:10:03;11.60;89.80
4215;DHT22;2121;48.062;7.850;2024-03-25T10:12:30;12.10;89.60
4215;DHT22;2121;48.062;7.850;2024-03-25T10:14:56;12.30;88.80
4215;DHT22;2121;48.062;7.850;2024-03-25T10:17:23;12.40;88.80
4215;DHT22;2121;48.062;7.850;2024-03-25T10:19:49;12.20;81.90
4215;DHT22;2121;48.062;7.850;2024-03-25T10:22:15;11.80;82.70
4215;DHT22;2121;48.062;7.850;2024-03-25T10:24:43;11.40;83.30
4215;DHT22;2121;48.062;7.850;2024-03-25T10:27:20;11.30;86.30
4215;DHT22;2121;48.062;7.850;2024-03-25T10:29:56;11.90;86.00
4215;DHT22;2121;48.062;7.850;2024-03-25T10:32:22;12.40;86.30
4215;DHT22;2121;48.062;7.850;2024-03-25T10:34:54;12.60;86.90
4215;DHT22;2121;48.062;7.850;2024-03-25T10:37:21;12.40;86.40
4215;DHT22;2121;48.062;7.850;2024-03-25T10:39:50;12.70;86.20
4215;DHT22;2121;48.062;7.850;2024-03-25T10:42:20;13.00;84.20
4215;DHT22;2121;48.062;7.850;2024-03-25T10:44:49;13.20;84.40
4215;DHT22;2121;48.062;7.850;2024-03-25T10:47:21;13.50;84.50
4215;DHT22;2121;48.062;7.850;2024-03-25T10:49:52;12.80;81.60
4215;DHT22;2121;48.062;7.850;2024-03-25T10:52:24;12.30;85.40
4215;DHT22;2121;48.062;7.850;2024-03-25T10:54:50;12.60;86.30
4215;DHT22;2121;48.062;7.850;2024-03-25T10:57:17;13.10;86.10
4215;DHT22;2121;48.062;7.850;2024-03-25T10:59:43;13.60;84.70
4215;DHT22;2121;48.062;7.850;2024-03-25T11:02:12;13.90;83.90
4215;DHT22;2121;48.062;7.850;2024-03-25T11:04:39;14.30;84.80
4215;DHT22;2121;48.062;7.850;2024-03-25T11:07:09;14.20;85.70
4215;DHT22;2121;48.062;7.850;2024-03-25T11:09:40;14.50;85.20
4215;DHT22;2121;48.062;7.850;2024-03-25T11:12:07;14.40;83.30
4215;DHT22;2121;48.062;7.850;2024-03-25T11:14:35;13.70;79.00
4215;DHT22;2121;48.062;7.850;2024-03-25T11:17:01;13.50;84.40
4215;DHT22;2121;48.062;7.850;2024-03-25T11:19:29;13.90;86.00
4215;DHT22;2121;48.062;7.850;2024-03-25T11:22:07;14.50;84.70
4215;DHT22;2121;48.062;7.850;2024-03-25T11:24:34;14.80;84.40
4215;DHT22;2121;48.062;7.850;2024-03-25T11:27:06;15.00;81.60
4215;DHT22;2121;48.062;7.850;2024-03-25T11:29:33;15.40;83.20
4215;DHT22;2121;48.062;7.850;2024-03-25T11:32:03;15.80;83.20
4215;DHT22;2121;48.062;7.850;2024-03-25T11:34:30;16.00;80.50
4215;DHT22;2121;48.062;7.850;2024-03-25T11:36:56;16.10;81.60
4215;DHT22;2121;48.062;7.850;2024-03-25T11:39:24;15.90;80.10
4215;DHT22;2121;48.062;7.850;2024-03-25T11:41:52;16.00;82.80
4215;DHT22;2121;48.062;7.850;2024-03-25T11:44:18;16.20;83.80
4215;DHT22;2121;48.062;7.850;2024-03-25T11:46:45;16.60;82.70
4215;DHT22;2121;48.062;7.850;2024-03-25T11:49:15;16.70;80.90
4215;DHT22;2121;48.062;7.850;2024-03-25T11:51:43;16.80;83.20
4215;DHT22;2121;48.062;7.850;2024-03-25T11:54:11;17.00;81.50
4215;DHT22;2121;48.062;7.850;2024-03-25T11:56:37;17.30;82.10
4215;DHT22;2121;48.062;7.850;2024-03-25T11:59:03;17.20;80.60
4215;DHT22;2121;48.062;7.850;2024-03-25T12:01:30;17.20;81.30
4215;DHT22;2121;48.062;7.850;2024-03-25T12:03:56;17.40;80.20
4215;DHT22;2121;48.062;7.850;2024-03-25T12:06:22;17.30;81.60
4215;DHT22;2121;48.062;7.850;2024-03-25T12:08:47;17.60;81.20
4215;DHT22;2121;48.062;7.850;2024-03-25T12:11:32;17.70;78.20
4215;DHT22;2121;48.062;7.850;2024-03-25T12:13:59;17.80;79.70
4215;DHT22;2121;48.062;7.850;2024-03-25T12:16:26;17.80;80.90
4215;DHT22;2121;48.062;7.850;2024-03-25T12:18:51;17.80;78.30
4215;DHT22;2121;48.062;7.850;2024-03-25T12:21:20;18.00;79.50
4215;DHT22;2121;48.062;7.850;2024-03-25T12:23:47;18.10;78.30
4215;DHT22;2121;48.062;7.850;2024-03-25T12:26:13;18.00;79.60
4215;DHT22;2121;48.062;7.850;2024-03-25T12:28:40;18.20;77.40
4215;DHT22;2121;48.062;7.850;2024-03-25T12:31:09;18.40;76.70
4215;DHT22;2121;48.062;7.850;2024-03-25T12:33:41;18.00;75.90
4215;DHT22;2121;48.062;7.850;2024-03-25T12:36:07;17.60;76.90
4215;DHT22;2121;48.062;7.850;2024-03-25T12:38:33;17.80;78.00
4215;DHT22;2121;48.062;7.850;2024-03-25T12:41:10;18.20;78.20
4215;DHT22;2121;48.062;7.850;2024-03-25T12:43:43;18.20;76.50
4215;DHT22;2121;48.062;7.850;2024-03-25T12:46:10;18.20;74.80
4215;DHT22;2121;48.062;7.850;2024-03-25T12:48:37;18.10;75.30
4215;DHT22;2121;48.062;7.850;2024-03-25T12:51:03;18.00;76.70
4215;DHT22;2121;48.062;7.850;2024-03-25T12:53:30;18.00;75.10
4215;DHT22;2121;48.062;7.850;2024-03-25T12:55:56;18.20;75.30
4215;DHT22;2121;48.062;7.850;2024-03-25T12:58:21;18.40;76.40
4215;DHT22;2121;48.062;7.850;2024-03-25T13:00:47;18.70;73.60
4215;DHT22;2121;48.062;7.850;2024-03-25T13:03:14;19.00;75.60
4215;DHT22;2121;48.062;7.850;2024-03-25T13:05:42;19.20;75.80
4215;DHT22;2121;48.062;7.850;2024-03-25T13:08:09;19.30;74.20
4215;DHT22;2121;48.062;7.850;2024-03-25T13:10:34;19.00;74.20
4215;DHT22;2121;48.062;7.850;2024-03-25T13:13:01;18.50;73.90
4215;DHT22;2121;48.062;7.850;2024-03-25T13:15:27;18.00;75.30
4215;DHT22;2121;48.062;7.850;2024-03-25T13:17:53;18.20;77.40
4215;DHT22;2121;48.062;7.850;2024-03-25T13:20:19;18.10;77.60
4215;DHT22;2121;48.062;7.850;2024-03-25T13:22:45;18.30;77.40
4215;DHT22;2121;48.062;7.850;2024-03-25T13:25:12;18.70;75.50
4215;DHT22;2121;48.062;7.850;2024-03-25T13:27:38;18.30;75.80
4215;DHT22;2121;48.062;7.850;2024-03-25T13:30:05;16.90;76.50
4215;DHT22;2121;48.062;7.850;2024-03-25T13:32:31;16.80;80.00
4215;DHT22;2121;48.062;7.850;2024-03-25T13:34:57;17.30;79.80
4215;DHT22;2121;48.062;7.850;2024-03-25T13:37:23;18.00;76.50
4215;DHT22;2121;48.062;7.850;2024-03-25T13:39:50;18.30;76.70
4215;DHT22;2121;48.062;7.850;2024-03-25T13:42:16;18.20;78.10
4215;DHT22;2121;48.062;7.850;2024-03-25T13:44:42;18.10;75.10
4215;DHT22;2121;48.062;7.850;2024-03-25T13:47:08;18.40;75.70
4215;DHT22;2121;48.062;7.850;2024-03-25T13:49:34;18.40;75.60
4215;DHT22;2121;48.062;7.850;2024-03-25T13:52:00;18.70;76.20
4215;DHT22;2121;48.062;7.850;2024-03-25T13:54:27;19.10;76.10
4215;DHT22;2121;48.062;7.850;2024-03-25T13:56:53;19.20;73.80
4215;DHT22;2121;48.062;7.850;2024-03-25T13:59:19;19.30;73.80
4215;DHT22;2121;48.062;7.850;2024-03-25T14:01:45;18.90;73.90
4215;DHT22;2121;48.062;7.850;2024-03-25T14:04:11;19.00;74.20
4215;DHT22;2121;48.062;7.850;2024-03-25T14:06:37;19.30;72.80
4215;DHT22;2121;48.062;7.850;2024-03-25T14:09:03;19.30;72.00
4215;DHT22;2121;48.062;7.850;2024-03-25T14:11:36;19.10;71.70
4215;DHT22;2121;48.062;7.850;2024-03-25T14:14:02;18.90;72.80
4215;DHT22;2121;48.062;7.850;2024-03-25T14:16:28;18.80;71.50
4215;DHT22;2121;48.062;7.850;2024-03-25T14:18:54;18.80;71.00
4215;DHT22;2121;48.062;7.850;2024-03-25T14:21:20;18.80;72.20
4215;DHT22;2121;48.062;7.850;2024-03-25T14:23:45;18.90;71.60
4215;DHT22;2121;48.062;7.850;2024-03-25T14:26:12;19.00;71.20
4215;DHT22;2121;48.062;7.850;2024-03-25T14:28:42;19.10;72.70
4215;DHT22;2121;48.062;7.850;2024-03-25T14:31:07;19.30;72.60
4215;DHT22;2121;48.062;7.850;2024-03-25T14:33:33;19.30;68.70
4215;DHT22;2121;48.062;7.850;2024-03-25T14:35:59;19.40;70.50
4215;DHT22;2121;48.062;7.850;2024-03-25T14:38:25;19.30;70.80
4215;DHT22;2121;48.062;7.850;2024-03-25T14:40:51;19.30;70.90
4215;DHT22;2121;48.062;7.850;2024-03-25T14:43:16;19.40;70.80
4215;DHT22;2121;48.062;7.850;2024-03-25T14:45:45;19.40;70.50
4215;DHT22;2121;48.062;7.850;2024-03-25T14:48:11;19.40;70.30
4215;DHT22;2121;48.062;7.850;2024-03-25T14:50:36;19.40;70.70
4215;DHT22;2121;48.062;7.850;2024-03-25T14:53:03;19.60;70.50
4215;DHT22;2121;48.062;7.850;2024-03-25T14:55:30;19.50;70.30
4215;DHT22;2121;48.062;7.850;2024-03-25T14:57:56;19.80;70.00
4215;DHT22;2121;48.062;7.850;2024-03-25T15:00:22;20.00;69.20
4215;DHT22;2121;48.062;7.850;2024-03-25T15:02:50;20.10;69.40
4215;DHT22;2121;48.062;7.850;2024-03-25T15:05:16;20.40;70.20
4215;DHT22;2121;48.062;7.850;2024-03-25T15:07:43;20.60;69.80
4215;DHT22;2121;48.062;7.850;2024-03-25T15:10:10;21.00;67.40
4215;DHT22;2121;48.062;7.850;2024-03-25T15:12:37;22.20;68.60
4215;DHT22;2121;48.062;7.850;2024-03-25T15:15:04;25.60;66.30
4215;DHT22;2121;48.062;7.850;2024-03-25T15:17:35;28.20;62.00
4215;DHT22;2121;48.062;7.850;2024-03-25T15:20:02;29.10;57.40
4215;DHT22;2121;48.062;7.850;2024-03-25T15:22:29;30.50;56.20
4215;DHT22;2121;48.062;7.850;2024-03-25T15:24:55;31.50;53.10
4215;DHT22;2121;48.062;7.850;2024-03-25T15:27:20;31.30;50.30
4215;DHT22;2121;48.062;7.850;2024-03-25T15:29:46;31.20;48.20
4215;DHT22;2121;48.062;7.850;2024-03-25T15:32:12;31.10;48.70
4215;DHT22;2121;48.062;7.850;2024-03-25T15:34:37;30.90;48.40
4215;DHT22;2121;48.062;7.850;2024-03-25T15:37:03;30.20;48.10
4215;DHT22;2121;48.062;7.850;2024-03-25T15:39:29;29.60;46.70
4215;DHT22;2121;48.062;7.850;2024-03-25T15:41:54;29.20;48.20
4215;DHT22;2121;48.062;7.850;2024-03-25T15:44:20;29.40;47.70
4215;DHT22;2121;48.062;7.850;2024-03-25T15:46:46;30.80;47.40
4215;DHT22;2121;48.062;7.850;2024-03-25T15:49:11;29.90;46.80
4215;DHT22;2121;48.062;7.850;2024-03-25T15:51:37;28.20;47.40
4215;DHT22;2121;48.062;7.850;2024-03-25T15:54:03;27.90;47.80
4215;DHT22;2121;48.062;7.850;2024-03-25T15:56:29;28.00;47.80
4215;DHT22;2121;48.062;7.850;2024-03-25T15:58:55;28.30;47.90
4215;DHT22;2121;48.062;7.850;2024-03-25T16:01:21;29.30;47.30
4215;DHT22;2121;48.062;7.850;2024-03-25T16:03:47;30.00;46.70
4215;DHT22;2121;48.062;7.850;2024-03-25T16:06:13;30.00;46.50